createdAt,value
2017-03-21T00:00:46.093Z,50.84
2017-03-21T00:01:46.118Z,50.93
2017-03-21T00:02:46.144Z,51.03
2017-03-21T00:03:46.176Z,51.41
2017-03-21T00:04:46.200Z,51.41
2017-03-21T00:05:46.540Z,50.93
2017-03-21T00:06:46.570Z,51.41
2017-03-21T00:07:46.599Z,51.41
2017-03-21T00:08:46.615Z,51.12
2017-03-21T00:09:46.335Z,51.32
2017-03-21T00:10:46.364Z,51.12
2017-03-21T00:11:46.700Z,51.41
2017-03-21T00:12:46.738Z,51.12
2017-03-21T00:13:46.443Z,51.32
2017-03-21T00:14:46.727Z,50.93
2017-03-21T00:15:46.820Z,51.32
2017-03-21T00:16:46.844Z,51.41
2017-03-21T00:17:46.874Z,51.03
2017-03-21T00:18:46.889Z,50.84
2017-03-21T00:19:47.172Z,51.32
2017-03-21T00:20:46.951Z,51.51
2017-03-21T00:21:46.980Z,51.12
2017-03-21T00:22:47.009Z,51.41
2017-03-21T00:23:46.722Z,51.51
2017-03-21T00:24:47.314Z,51.03
2017-03-21T00:25:47.091Z,51.32
2017-03-21T00:26:46.808Z,51.51
2017-03-21T00:27:47.149Z,51.32
2017-03-21T00:28:47.174Z,51.22
2017-03-21T00:29:47.445Z,51.22
2017-03-21T00:30:46.915Z,51.12
2017-03-21T00:31:46.943Z,51.12
2017-03-21T00:32:47.280Z,50.84
2017-03-21T00:33:47.306Z,51.03
2017-03-21T00:34:47.279Z,51.12
2017-03-21T00:35:47.395Z,50.93
2017-03-21T00:36:47.079Z,50.84
2017-03-21T00:37:47.112Z,51.12
2017-03-21T00:38:47.138Z,50.74
2017-03-21T00:39:47.725Z,51.12
2017-03-21T00:40:47.502Z,50.93
2017-03-21T00:41:47.216Z,50.84
2017-03-21T00:42:47.248Z,51.32
2017-03-21T00:43:47.582Z,51.41
2017-03-21T00:44:47.869Z,51.12
2017-03-21T00:45:47.639Z,51.51
2017-03-21T00:46:47.722Z,51.12
2017-03-21T00:47:47.692Z,51.03
2017-03-21T00:48:47.405Z,50.74
2017-03-21T00:49:47.689Z,51.22
2017-03-21T00:50:47.787Z,50.93
2017-03-21T00:51:47.802Z,50.93
2017-03-21T00:52:47.516Z,51.32
2017-03-21T00:53:47.553Z,50.84
2017-03-21T00:54:47.828Z,50.74
2017-03-21T00:55:47.605Z,51.12
2017-03-21T00:56:47.944Z,51.12
2017-03-21T00:57:47.976Z,50.93
2017-03-21T00:58:47.997Z,51
2017-03-21T00:59:47.965Z,51.03
2017-03-21T01:00:48.048Z,51.03
2017-03-21T01:01:48.078Z,50.9
2017-03-21T01:02:48.104Z,51.03
2017-03-21T01:03:48.132Z,51.12
2017-03-21T01:04:48.412Z,50.64
2017-03-21T01:05:48.189Z,51.03
2017-03-21T01:06:48.240Z,50.93
2017-03-21T01:07:47.932Z,50.62
2017-03-21T01:08:48.264Z,50.23
2017-03-21T01:09:48.556Z,50.13
2017-03-21T01:10:48.326Z,50.54
2017-03-21T01:11:48.357Z,50.9
2017-03-21T01:12:48.381Z,50.54
2017-03-21T01:13:48.096Z,50.13
2017-03-21T01:14:48.124Z,50.52
2017-03-21T01:15:48.464Z,50.9
2017-03-21T01:16:48.494Z,50.32
2017-03-21T01:17:48.206Z,50.52
2017-03-21T01:18:48.232Z,50.62
2017-03-21T01:19:48.576Z,50.62
2017-03-21T01:20:48.597Z,50.23
2017-03-21T01:21:48.625Z,50.42
2017-03-21T01:22:48.343Z,50.32
2017-03-21T01:23:48.683Z,50.62
2017-03-21T01:24:48.391Z,50.26
2017-03-21T01:25:48.425Z,50.23
2017-03-21T01:26:48.769Z,50.23
2017-03-21T01:27:48.802Z,50.23
2017-03-21T01:28:48.823Z,50.42
2017-03-21T01:29:48.847Z,50.13
2017-03-21T01:30:48.873Z,50.04
2017-03-21T01:31:48.901Z,50.32
2017-03-21T01:32:48.618Z,50.32
2017-03-21T01:33:48.954Z,50.23
2017-03-21T01:34:48.972Z,50.42
2017-03-21T01:35:49.008Z,50.32
2017-03-21T01:36:49.313Z,50.23
2017-03-21T01:37:49.058Z,50.13
2017-03-21T01:38:49.090Z,50.13
2017-03-21T01:39:48.808Z,50.23
2017-03-21T01:40:49.144Z,50.23
2017-03-21T01:41:48.861Z,50.52
2017-03-21T01:42:48.886Z,50.23
2017-03-21T01:43:49.231Z,50.42
2017-03-21T01:44:49.246Z,50.23
2017-03-21T01:45:48.972Z,50.32
2017-03-21T01:46:48.992Z,50.42
2017-03-21T01:47:49.025Z,50.62
2017-03-21T01:48:49.049Z,50.62
2017-03-21T01:49:49.390Z,50.62
2017-03-21T01:50:49.422Z,50.23
2017-03-21T01:51:49.444Z,50.62
2017-03-21T01:52:49.160Z,50.32
2017-03-21T01:53:49.502Z,50.62
2017-03-21T01:54:49.518Z,50.42
2017-03-21T01:55:49.243Z,50.04
2017-03-21T01:56:49.591Z,49.94
2017-03-21T01:57:49.605Z,50.23
2017-03-21T01:58:49.642Z,50.81
2017-03-21T01:59:49.659Z,50.32
2017-03-21T02:00:49.690Z,50.04
2017-03-21T02:01:49.722Z,49.65
2017-03-21T02:02:49.745Z,49.94
2017-03-21T02:03:49.774Z,50.13
2017-03-21T02:04:49.482Z,49.84
2017-03-21T02:05:49.763Z,50.13
2017-03-21T02:06:49.855Z,50.04
2017-03-21T02:07:49.573Z,50.04
2017-03-21T02:08:49.597Z,49.94
2017-03-21T02:09:49.938Z,49.46
2017-03-21T02:10:50.218Z,50.13
2017-03-21T02:11:49.988Z,49.84
2017-03-21T02:12:50.018Z,50.32
2017-03-21T02:13:50.041Z,49.84
2017-03-21T02:14:50.069Z,49.94
2017-03-21T02:15:50.349Z,50.04
2017-03-21T02:16:50.123Z,50.52
2017-03-21T02:17:50.151Z,50.04
2017-03-21T02:18:50.176Z,50.04
2017-03-21T02:19:50.214Z,50.13
2017-03-21T02:20:50.178Z,49.84
2017-03-21T02:21:50.267Z,49.75
2017-03-21T02:22:50.292Z,50.23
2017-03-21T02:23:50.320Z,49.75
2017-03-21T02:24:50.027Z,50.23
2017-03-21T02:25:50.626Z,50.13
2017-03-21T02:26:50.086Z,49.75
2017-03-21T02:27:50.119Z,49.94
2017-03-21T02:28:50.135Z,49.94
2017-03-21T02:29:50.168Z,49.94
2017-03-21T02:30:50.757Z,49.94
2017-03-21T02:31:50.534Z,49.75
2017-03-21T02:32:50.563Z,49.84
2017-03-21T02:33:50.276Z,49.37
2017-03-21T02:34:50.614Z,50.04
2017-03-21T02:35:50.896Z,50.13
2017-03-21T02:36:50.670Z,49.75
2017-03-21T02:37:50.386Z,49.94
2017-03-21T02:38:50.731Z,50.13
2017-03-21T02:39:50.435Z,50.04
2017-03-21T02:40:51.036Z,49.94
2017-03-21T02:41:50.806Z,50.04
2017-03-21T02:42:50.835Z,49.94
2017-03-21T02:43:50.552Z,49.94
2017-03-21T02:44:50.571Z,50.04
2017-03-21T02:45:51.168Z,50.13
2017-03-21T02:46:50.941Z,49.84
2017-03-21T02:47:50.974Z,49.84
2017-03-21T02:48:50.999Z,50.04
2017-03-21T02:49:50.711Z,50.04
2017-03-21T02:50:51.004Z,49.65
2017-03-21T02:51:51.077Z,49.37
2017-03-21T02:52:51.106Z,49.75
2017-03-21T02:53:50.823Z,49.27
2017-03-21T02:54:50.848Z,49.65
2017-03-21T02:55:51.124Z,49.65
2017-03-21T02:56:51.211Z,49.65
2017-03-21T02:57:51.251Z,49.46
2017-03-21T02:58:51.265Z,49.37
2017-03-21T02:59:51.294Z,49.84
2017-03-21T03:00:51.260Z,49.75
2017-03-21T03:01:51.349Z,49.37
2017-03-21T03:02:51.382Z,49.65
2017-03-21T03:03:51.094Z,49.27
2017-03-21T03:04:51.431Z,49.65
2017-03-21T03:05:51.399Z,49.84
2017-03-21T03:06:51.485Z,49.37
2017-03-21T03:07:51.201Z,49.37
2017-03-21T03:08:51.538Z,49.07
2017-03-21T03:09:51.263Z,49.37
2017-03-21T03:10:51.846Z,49.46
2017-03-21T03:11:51.618Z,48.88
2017-03-21T03:12:51.648Z,48.97
2017-03-21T03:13:51.686Z,49.17
2017-03-21T03:14:51.706Z,49.07
2017-03-21T03:15:51.671Z,49.17
2017-03-21T03:16:51.436Z,49.46
2017-03-21T03:17:51.781Z,48.97
2017-03-21T03:18:51.500Z,49.07
2017-03-21T03:19:51.526Z,48.88
2017-03-21T03:20:52.118Z,49.17
2017-03-21T03:21:51.576Z,49.07
2017-03-21T03:22:51.922Z,49.07
2017-03-21T03:23:51.945Z,49.17
2017-03-21T03:24:51.989Z,49.17
2017-03-21T03:25:51.941Z,49.07
2017-03-21T03:26:51.711Z,49.07
2017-03-21T03:27:52.052Z,49.46
2017-03-21T03:28:52.089Z,49.07
2017-03-21T03:29:52.114Z,48.95
2017-03-21T03:30:52.389Z,48.97
2017-03-21T03:31:52.155Z,48.97
2017-03-21T03:32:52.189Z,49.07
2017-03-21T03:33:52.233Z,49.46
2017-03-21T03:34:51.936Z,49.37
2017-03-21T03:35:51.962Z,48.88
2017-03-21T03:36:52.299Z,49.15
2017-03-21T03:37:52.328Z,49.34
2017-03-21T03:38:52.353Z,49.17
2017-03-21T03:39:52.073Z,48.95
2017-03-21T03:40:52.409Z,49.46
2017-03-21T03:41:52.121Z,48.86
2017-03-21T03:42:52.463Z,48.97
2017-03-21T03:43:52.489Z,48.95
2017-03-21T03:44:52.517Z,48.79
2017-03-21T03:45:52.545Z,48.88
2017-03-21T03:46:52.575Z,49.24
2017-03-21T03:47:52.599Z,48.69
2017-03-21T03:48:52.312Z,48.88
2017-03-21T03:49:52.336Z,48.69
2017-03-21T03:50:52.682Z,48.97
2017-03-21T03:51:52.394Z,48.57
2017-03-21T03:52:52.419Z,48.97
2017-03-21T03:53:52.448Z,48.97
2017-03-21T03:54:52.788Z,49.17
2017-03-21T03:55:52.809Z,48.97
2017-03-21T03:56:52.842Z,49.05
2017-03-21T03:57:52.558Z,49.07
2017-03-21T03:58:52.896Z,48.66
2017-03-21T03:59:52.925Z,48.69
2017-03-21T04:00:52.948Z,48.66
2017-03-21T04:01:52.981Z,48.69
2017-03-21T04:02:53.007Z,48.86
2017-03-21T04:03:53.033Z,48.86
2017-03-21T04:04:52.748Z,48.86
2017-03-21T04:05:52.773Z,48.88
2017-03-21T04:06:53.111Z,48.95
2017-03-21T04:07:53.133Z,48.95
2017-03-21T04:08:53.165Z,48.86
2017-03-21T04:09:53.203Z,48.95
2017-03-21T04:10:53.220Z,48.76
2017-03-21T04:11:52.932Z,48.57
2017-03-21T04:12:53.274Z,48.76
2017-03-21T04:13:53.302Z,48.28
2017-03-21T04:14:53.023Z,48.66
2017-03-21T04:15:53.044Z,48.57
2017-03-21T04:16:53.074Z,48.57
2017-03-21T04:17:53.414Z,48.57
2017-03-21T04:18:53.442Z,48.57
2017-03-21T04:19:53.155Z,48.57
2017-03-21T04:20:53.495Z,48.66
2017-03-21T04:21:53.519Z,48.47
2017-03-21T04:22:53.233Z,48.57
2017-03-21T04:23:53.262Z,48.47
2017-03-21T04:24:53.291Z,48.57
2017-03-21T04:25:53.624Z,48.57
2017-03-21T04:26:53.655Z,48.28
2017-03-21T04:27:53.685Z,48.18
2017-03-21T04:28:53.709Z,48.28
2017-03-21T04:29:53.751Z,48.28
2017-03-21T04:30:53.763Z,48.18
2017-03-21T04:31:53.792Z,48.47
2017-03-21T04:32:53.817Z,48.18
2017-03-21T04:33:53.845Z,47.99
2017-03-21T04:34:53.874Z,47.89
2017-03-21T04:35:53.895Z,48.38
2017-03-21T04:36:53.612Z,48.08
2017-03-21T04:37:53.640Z,48.18
2017-03-21T04:38:53.665Z,48.28
2017-03-21T04:39:53.698Z,48.18
2017-03-21T04:40:53.721Z,48.28
2017-03-21T04:41:54.060Z,48.28
2017-03-21T04:42:54.083Z,47.99
2017-03-21T04:43:54.115Z,47.89
2017-03-21T04:44:54.138Z,47.99
2017-03-21T04:45:53.862Z,48.08
2017-03-21T04:46:53.883Z,48.08
2017-03-21T04:47:53.911Z,47.89
2017-03-21T04:48:53.933Z,48.18
2017-03-21T04:49:53.971Z,47.92
2017-03-21T04:50:54.306Z,47.89
2017-03-21T04:51:54.019Z,47.99
2017-03-21T04:52:54.047Z,47.99
2017-03-21T04:53:54.383Z,47.99
2017-03-21T04:54:54.418Z,47.89
2017-03-21T04:55:54.438Z,47.99
2017-03-21T04:56:54.471Z,48.18
2017-03-21T04:57:54.184Z,48.18
2017-03-21T04:58:54.516Z,47.89
2017-03-21T04:59:54.546Z,48.08
2017-03-21T05:00:54.579Z,47.99
2017-03-21T05:01:54.534Z,48.08
2017-03-21T05:02:54.312Z,48.28
2017-03-21T05:03:54.656Z,48.28
2017-03-21T05:04:54.377Z,47.51
2017-03-21T05:05:54.705Z,47.51
2017-03-21T05:06:55.005Z,47.8
2017-03-21T05:07:54.765Z,47.8
2017-03-21T05:08:54.791Z,47.6
2017-03-21T05:09:54.825Z,47.7
2017-03-21T05:10:54.849Z,47.99
2017-03-21T05:11:55.125Z,47.41
2017-03-21T05:12:54.595Z,47.51
2017-03-21T05:13:54.936Z,47.89
2017-03-21T05:14:54.640Z,47.51
2017-03-21T05:15:54.668Z,47.7
2017-03-21T05:16:55.257Z,47.41
2017-03-21T05:17:55.035Z,47.6
2017-03-21T05:18:55.060Z,47.7
2017-03-21T05:19:55.102Z,47.8
2017-03-21T05:20:55.115Z,47.8
2017-03-21T05:21:55.080Z,47.31
2017-03-21T05:22:54.859Z,47.6
2017-03-21T05:23:55.196Z,47.41
2017-03-21T05:24:54.908Z,47.6
2017-03-21T05:25:54.936Z,47.51
2017-03-21T05:26:55.216Z,47.8
2017-03-21T05:27:55.306Z,47.31
2017-03-21T05:28:55.023Z,47.7
2017-03-21T05:29:55.360Z,47.6
2017-03-21T05:30:55.387Z,47.31
2017-03-21T05:31:55.353Z,47.51
2017-03-21T05:32:55.446Z,47.41
2017-03-21T05:33:55.155Z,47.41
2017-03-21T05:34:55.499Z,47.51
2017-03-21T05:35:55.520Z,47.8
2017-03-21T05:36:55.800Z,47.41
2017-03-21T05:37:55.262Z,47.41
2017-03-21T05:38:55.603Z,47.6
2017-03-21T05:39:55.635Z,47.51
2017-03-21T05:40:55.655Z,47.7
2017-03-21T05:41:55.939Z,47.31
2017-03-21T05:42:55.711Z,47.41
2017-03-21T05:43:55.737Z,47.51
2017-03-21T05:44:55.767Z,47.22
2017-03-21T05:45:55.782Z,47.41
2017-03-21T05:46:56.071Z,47.41
2017-03-21T05:47:55.848Z,47.51
2017-03-21T05:48:55.874Z,47.31
2017-03-21T05:49:55.904Z,47.51
2017-03-21T05:50:55.921Z,47.51
2017-03-21T05:51:56.207Z,47.34
2017-03-21T05:52:55.981Z,47.63
2017-03-21T05:53:56.009Z,47.53
2017-03-21T05:54:56.036Z,47.31
2017-03-21T05:55:55.750Z,47.34
2017-03-21T05:56:56.025Z,47.51
2017-03-21T05:57:56.115Z,47.53
2017-03-21T05:58:55.833Z,47.34
2017-03-21T05:59:56.170Z,47.31
2017-03-21T06:00:56.195Z,47.53
2017-03-21T06:01:56.154Z,47.24
2017-03-21T06:02:56.256Z,47.44
2017-03-21T06:03:55.969Z,47.44
2017-03-21T06:04:56.341Z,47.44
2017-03-21T06:05:56.335Z,47.53
2017-03-21T06:06:56.609Z,47.44
2017-03-21T06:07:56.075Z,47.53
2017-03-21T06:08:56.412Z,47.53
2017-03-21T06:09:56.442Z,47.34
2017-03-21T06:10:56.474Z,47.34
2017-03-21T06:11:56.178Z,47.24
2017-03-21T06:12:56.528Z,47.72
2017-03-21T06:13:56.548Z,47.63
2017-03-21T06:14:56.584Z,47.72
2017-03-21T06:15:56.290Z,47.53
2017-03-21T06:16:56.319Z,47.34
2017-03-21T06:17:56.662Z,47.63
2017-03-21T06:18:56.684Z,47.34
2017-03-21T06:19:56.713Z,47.63
2017-03-21T06:20:56.737Z,47.24
2017-03-21T06:21:56.774Z,47.24
2017-03-21T06:22:56.487Z,47.34
2017-03-21T06:23:56.823Z,47.34
2017-03-21T06:24:56.540Z,47.34
2017-03-21T06:25:56.874Z,47.24
2017-03-21T06:26:56.584Z,47.14
2017-03-21T06:27:56.930Z,47.24
2017-03-21T06:28:56.950Z,47.27
2017-03-21T06:29:56.985Z,47.55
2017-03-21T06:30:57.008Z,47.36
2017-03-21T06:31:56.726Z,47.55
2017-03-21T06:32:57.070Z,47.55
2017-03-21T06:33:57.091Z,47.55
2017-03-21T06:34:56.808Z,47.55
2017-03-21T06:35:57.144Z,47.55
2017-03-21T06:36:56.864Z,47.27
2017-03-21T06:37:57.198Z,47.55
2017-03-21T06:38:57.227Z,47.27
2017-03-21T06:39:57.256Z,47.17
2017-03-21T06:40:57.281Z,47.07
2017-03-21T06:41:56.998Z,47.07
2017-03-21T06:42:57.337Z,47.17
2017-03-21T06:43:57.363Z,47.07
2017-03-21T06:44:57.391Z,46.97
2017-03-21T06:45:57.415Z,47.07
2017-03-21T06:46:57.132Z,46.97
2017-03-21T06:47:57.473Z,47.17
2017-03-21T06:48:57.187Z,47.27
2017-03-21T06:49:57.527Z,47.36
2017-03-21T06:50:57.556Z,46.88
2017-03-21T06:51:57.582Z,47.19
2017-03-21T06:52:57.614Z,47.07
2017-03-21T06:53:57.639Z,46.78
2017-03-21T06:54:57.663Z,46.9
2017-03-21T06:55:57.696Z,46.61
2017-03-21T06:56:57.721Z,46.81
2017-03-21T06:57:57.429Z,46.61
2017-03-21T06:58:57.781Z,46.61
2017-03-21T06:59:57.803Z,46.59
2017-03-21T07:00:57.827Z,46.42
2017-03-21T07:01:57.856Z,46.51
2017-03-21T07:02:57.573Z,46.42
2017-03-21T07:03:57.910Z,46.61
2017-03-21T07:04:57.644Z,46.81
2017-03-21T07:05:57.651Z,46.42
2017-03-21T07:06:57.675Z,46.61
2017-03-21T07:07:58.027Z,46.42
2017-03-21T07:08:57.734Z,46.33
2017-03-21T07:09:58.078Z,46.51
2017-03-21T07:10:58.107Z,46.13
2017-03-21T07:11:58.128Z,46.42
2017-03-21T07:12:57.849Z,46.51
2017-03-21T07:13:57.869Z,46.51
2017-03-21T07:14:58.206Z,46.42
2017-03-21T07:15:58.234Z,46.42
2017-03-21T07:16:57.955Z,46.42
2017-03-21T07:17:58.547Z,46.42
2017-03-21T07:18:58.013Z,46.42
2017-03-21T07:19:58.349Z,46.71
2017-03-21T07:20:58.375Z,46.81
2017-03-21T07:21:58.407Z,46.9
2017-03-21T07:22:58.689Z,46.51
2017-03-21T07:23:58.461Z,46.23
2017-03-21T07:24:58.481Z,46.71
2017-03-21T07:25:58.506Z,46.33
2017-03-21T07:26:58.543Z,46.71
2017-03-21T07:27:58.820Z,46.42
2017-03-21T07:28:58.602Z,46.51
2017-03-21T07:29:58.625Z,46.42
2017-03-21T07:30:58.649Z,46.42
2017-03-21T07:31:58.679Z,46.42
2017-03-21T07:32:58.959Z,46.23
2017-03-21T07:33:58.422Z,46.23
2017-03-21T07:34:58.762Z,46.33
2017-03-21T07:35:58.790Z,46.33
2017-03-21T07:36:58.817Z,46.33
2017-03-21T07:37:59.099Z,46.13
2017-03-21T07:38:58.881Z,46.23
2017-03-21T07:39:58.900Z,46.33
2017-03-21T07:40:58.609Z,46.23
2017-03-21T07:41:58.954Z,46.23
2017-03-21T07:42:58.922Z,46.42
2017-03-21T07:43:59.008Z,46.33
2017-03-21T07:44:59.041Z,46.42
2017-03-21T07:45:58.754Z,46.23
2017-03-21T07:46:59.094Z,46.61
2017-03-21T07:47:59.371Z,46.33
2017-03-21T07:48:59.148Z,46.42
2017-03-21T07:49:58.865Z,46.23
2017-03-21T07:50:59.201Z,46.23
2017-03-21T07:51:59.231Z,46.33
2017-03-21T07:52:59.254Z,46.33
2017-03-21T07:53:58.974Z,46.42
2017-03-21T07:54:59.000Z,46.42
2017-03-21T07:55:59.337Z,46.23
2017-03-21T07:56:59.370Z,46.51
2017-03-21T07:57:59.395Z,45.94
2017-03-21T07:58:59.427Z,46.01
2017-03-21T07:59:59.460Z,45.94
2017-03-21T08:00:59.473Z,45.84
2017-03-21T08:01:59.501Z,46.03
2017-03-21T08:02:59.539Z,46.42
2017-03-21T08:03:59.559Z,46.3
2017-03-21T08:04:59.280Z,46.33
2017-03-21T08:05:59.625Z,46.33
2017-03-21T08:06:59.657Z,46.3
2017-03-21T08:07:59.667Z,46.42
2017-03-21T08:08:59.693Z,46.23
2017-03-21T08:09:59.735Z,46.23
2017-03-21T08:10:59.751Z,46.03
2017-03-21T08:11:59.790Z,46.03
2017-03-21T08:12:59.809Z,46.33
2017-03-21T08:13:59.834Z,45.84
2017-03-21T08:14:59.548Z,45.84
2017-03-21T08:15:59.888Z,46.13
2017-03-21T08:16:59.913Z,46.23
2017-03-21T08:17:59.941Z,46.13
2017-03-21T08:18:59.663Z,46.03
2017-03-21T08:19:59.999Z,45.84
2017-03-21T08:21:00.029Z,45.94
2017-03-21T08:22:00.060Z,46.11
2017-03-21T08:23:00.085Z,46.13
2017-03-21T08:24:00.110Z,46.03
2017-03-21T08:25:00.173Z,45.94
2017-03-21T08:26:00.168Z,45.84
2017-03-21T08:27:00.200Z,46.03
2017-03-21T08:28:00.217Z,45.94
2017-03-21T08:29:00.253Z,46.11
2017-03-21T08:30:00.279Z,46.13
2017-03-21T08:31:00.299Z,46.03
2017-03-21T08:32:00.330Z,46.03
2017-03-21T08:33:00.356Z,45.94
2017-03-21T08:34:00.388Z,45.84
2017-03-21T08:35:00.413Z,46.01
2017-03-21T08:36:00.443Z,45.94
2017-03-21T08:37:00.163Z,45.92
2017-03-21T08:38:00.494Z,46.01
2017-03-21T08:39:00.213Z,45.94
2017-03-21T08:40:00.555Z,45.84
2017-03-21T08:41:00.309Z,46.03
2017-03-21T08:42:00.613Z,46.03
2017-03-21T08:43:00.647Z,45.84
2017-03-21T08:44:00.354Z,45.94
2017-03-21T08:45:00.698Z,45.94
2017-03-21T08:46:00.719Z,45.82
2017-03-21T08:47:00.749Z,45.92
2017-03-21T08:48:00.768Z,45.94
2017-03-21T08:49:00.489Z,45.82
2017-03-21T08:50:00.830Z,46.03
2017-03-21T08:51:00.857Z,46.13
2017-03-21T08:52:00.883Z,45.94
2017-03-21T08:53:00.907Z,46.13
2017-03-21T08:54:00.628Z,46.01
2017-03-21T08:55:00.969Z,46.01
2017-03-21T08:56:00.689Z,46.2
2017-03-21T08:57:00.711Z,46.2
2017-03-21T08:58:00.740Z,46.03
2017-03-21T08:59:00.773Z,46.23
2017-03-21T09:00:00.792Z,46.3
2017-03-21T09:01:01.134Z,46.69
2017-03-21T09:02:01.163Z,46.33
2017-03-21T09:03:01.183Z,46.3
2017-03-21T09:04:00.906Z,46.01
2017-03-21T09:05:01.245Z,46.42
2017-03-21T09:06:01.269Z,46.3
2017-03-21T09:07:01.297Z,46.3
2017-03-21T09:08:01.323Z,46.3
2017-03-21T09:09:01.356Z,46.3
2017-03-21T09:10:01.396Z,46.2
2017-03-21T09:11:01.409Z,46.3
2017-03-21T09:12:01.438Z,46.3
2017-03-21T09:13:01.459Z,46.2
2017-03-21T09:14:01.496Z,46.3
2017-03-21T09:15:01.520Z,46.3
2017-03-21T09:16:01.545Z,46.11
2017-03-21T09:17:01.570Z,46.33
2017-03-21T09:18:01.598Z,46.3
2017-03-21T09:19:01.630Z,46.3
2017-03-21T09:20:01.659Z,45.92
2017-03-21T09:21:01.684Z,46.49
2017-03-21T09:22:01.713Z,46.01
2017-03-21T09:23:01.734Z,46.59
2017-03-21T09:24:01.767Z,46.3
2017-03-21T09:25:01.483Z,46.4
2017-03-21T09:26:01.508Z,46.3
2017-03-21T09:27:01.855Z,46.3
2017-03-21T09:28:01.876Z,46.4
2017-03-21T09:29:01.907Z,46.01
2017-03-21T09:30:01.928Z,45.82
2017-03-21T09:31:01.961Z,46.2
2017-03-21T09:32:01.993Z,46.3
2017-03-21T09:33:02.013Z,46.3
2017-03-21T09:34:01.731Z,46.3
2017-03-21T09:35:01.770Z,46.3
2017-03-21T09:36:02.096Z,46.4
2017-03-21T09:37:02.127Z,46.3
2017-03-21T09:38:02.149Z,46.11
2017-03-21T09:39:01.871Z,46.2
2017-03-21T09:40:02.207Z,46.3
2017-03-21T09:41:01.956Z,46.4
2017-03-21T09:42:02.259Z,46.3
2017-03-21T09:43:02.289Z,46.49
2017-03-21T09:44:02.318Z,46.3
2017-03-21T09:45:02.347Z,46.3
2017-03-21T09:46:02.063Z,46.3
2017-03-21T09:47:02.400Z,46.4
2017-03-21T09:48:02.425Z,46.3
2017-03-21T09:49:02.394Z,46.2
2017-03-21T09:50:02.482Z,46.3
2017-03-21T09:51:02.510Z,46.3
2017-03-21T09:52:02.223Z,46.3
2017-03-21T09:53:02.565Z,46.49
2017-03-21T09:54:02.845Z,46.49
2017-03-21T09:55:02.619Z,46.4
2017-03-21T09:56:02.334Z,46.78
2017-03-21T09:57:02.364Z,46.69
2017-03-21T09:58:02.708Z,46.4
2017-03-21T09:59:02.983Z,46.2
2017-03-21T10:00:02.447Z,46.4
2017-03-21T10:01:02.474Z,46.3
2017-03-21T10:02:02.833Z,46.4
2017-03-21T10:03:02.839Z,46.78
2017-03-21T10:04:03.121Z,46.88
2017-03-21T10:05:02.897Z,46.69
2017-03-21T10:06:02.611Z,46.59
2017-03-21T10:07:02.942Z,46.69
2017-03-21T10:08:02.664Z,46.88
2017-03-21T10:09:02.953Z,46.78
2017-03-21T10:10:03.028Z,46.78
2017-03-21T10:11:03.071Z,46.69
2017-03-21T10:12:03.087Z,46.69
2017-03-21T10:13:03.121Z,46.4
2017-03-21T10:14:03.426Z,46.49
2017-03-21T10:15:03.204Z,46.59
2017-03-21T10:16:03.198Z,46.49
2017-03-21T10:17:02.908Z,46.69
2017-03-21T10:18:03.252Z,46.69
2017-03-21T10:19:03.230Z,46.49
2017-03-21T10:20:02.996Z,46.4
2017-03-21T10:21:03.333Z,46.37
2017-03-21T10:22:03.365Z,46.4
2017-03-21T10:23:03.387Z,46.49
2017-03-21T10:24:03.668Z,46.11
2017-03-21T10:25:03.445Z,46.49
2017-03-21T10:26:03.470Z,46.47
2017-03-21T10:27:03.495Z,46.2
2017-03-21T10:28:03.531Z,46.59
2017-03-21T10:29:03.525Z,46.49
2017-03-21T10:30:03.581Z,46.78
2017-03-21T10:31:03.621Z,46.78
2017-03-21T10:32:03.638Z,46.69
2017-03-21T10:33:03.663Z,46.3
2017-03-21T10:34:03.943Z,45.92
2017-03-21T10:35:03.721Z,45.92
2017-03-21T10:36:03.753Z,45.92
2017-03-21T10:37:03.774Z,46.11
2017-03-21T10:38:03.803Z,45.92
2017-03-21T10:39:04.078Z,46.01
2017-03-21T10:40:03.855Z,46.2
2017-03-21T10:41:03.577Z,46.11
2017-03-21T10:42:03.908Z,45.72
2017-03-21T10:43:03.933Z,46.11
2017-03-21T10:44:04.218Z,46.11
2017-03-21T10:45:03.995Z,45.82
2017-03-21T10:46:04.021Z,45.82
2017-03-21T10:47:03.737Z,45.62
2017-03-21T10:48:04.078Z,45.75
2017-03-21T10:49:04.358Z,46.03
2017-03-21T10:50:04.130Z,45.17
2017-03-21T10:51:04.160Z,45.36
2017-03-21T10:52:03.878Z,45.36
2017-03-21T10:53:04.214Z,45.07
2017-03-21T10:54:04.494Z,45.45
2017-03-21T10:55:04.267Z,45.55
2017-03-21T10:56:04.296Z,45.55
2017-03-21T10:57:04.325Z,45.36
2017-03-21T10:58:04.354Z,45.26
2017-03-21T10:59:04.066Z,45.17
2017-03-21T11:00:04.410Z,45.07
2017-03-21T11:01:04.440Z,45.17
2017-03-21T11:02:04.184Z,45.26
2017-03-21T11:03:04.493Z,45.75
2017-03-21T11:04:04.526Z,45.65
2017-03-21T11:05:04.551Z,45.55
2017-03-21T11:06:04.575Z,45.36
2017-03-21T11:07:04.604Z,45.17
2017-03-21T11:08:04.321Z,45.36
2017-03-21T11:09:04.667Z,45.17
2017-03-21T11:10:04.690Z,45.07
2017-03-21T11:11:04.715Z,45.26
2017-03-21T11:12:04.749Z,45.07
2017-03-21T11:13:04.458Z,45.17
2017-03-21T11:14:04.485Z,45.07
2017-03-21T11:15:04.513Z,45.36
2017-03-21T11:16:04.545Z,45.07
2017-03-21T11:17:04.883Z,45.36
2017-03-21T11:18:04.912Z,45.26
2017-03-21T11:19:04.621Z,45.26
2017-03-21T11:20:04.653Z,44.78
2017-03-21T11:21:04.678Z,44.97
2017-03-21T11:22:05.018Z,44.29
2017-03-21T11:23:05.046Z,44.39
2017-03-21T11:24:04.769Z,44.87
2017-03-21T11:25:05.102Z,44.39
2017-03-21T11:26:04.827Z,44.29
2017-03-21T11:27:04.859Z,44.59
2017-03-21T11:28:05.195Z,44.78
2017-03-21T11:29:04.905Z,44.78
2017-03-21T11:30:04.938Z,44.87
2017-03-21T11:31:04.962Z,44.68
2017-03-21T11:32:05.334Z,44.49
2017-03-21T11:33:05.016Z,44.87
2017-03-21T11:34:05.356Z,44.97
2017-03-21T11:35:05.389Z,45.17
2017-03-21T11:36:05.414Z,44.97
2017-03-21T11:37:05.126Z,45.17
2017-03-21T11:38:05.483Z,45.07
2017-03-21T11:39:05.508Z,44.49
2017-03-21T11:40:05.525Z,44.78
2017-03-21T11:41:05.238Z,44.68
2017-03-21T11:42:05.582Z,44.87
2017-03-21T11:43:05.603Z,44.59
2017-03-21T11:44:05.633Z,44.59
2017-03-21T11:45:05.669Z,44.87
2017-03-21T11:46:05.693Z,44.59
2017-03-21T11:47:05.710Z,44.68
2017-03-21T11:48:05.743Z,44.59
2017-03-21T11:49:05.771Z,44.78
2017-03-21T11:50:05.524Z,44.78
2017-03-21T11:51:05.833Z,44.68
2017-03-21T11:52:05.855Z,44.78
2017-03-21T11:53:05.578Z,44.78
2017-03-21T11:54:05.926Z,44.39
2017-03-21T11:55:05.943Z,45.26
2017-03-21T11:56:05.960Z,44.78
2017-03-21T11:57:05.997Z,44.29
2017-03-21T11:58:06.026Z,44.29
2017-03-21T11:59:06.053Z,44.87
2017-03-21T12:00:06.079Z,44.87
2017-03-21T12:01:05.797Z,44.59
2017-03-21T12:02:06.141Z,44.78
2017-03-21T12:03:06.157Z,44.78
2017-03-21T12:04:06.200Z,44.97
2017-03-21T12:05:06.223Z,44.97
2017-03-21T12:06:06.248Z,44.49
2017-03-21T12:07:06.276Z,44.78
2017-03-21T12:08:06.302Z,44.87
2017-03-21T12:09:06.335Z,44.87
2017-03-21T12:10:06.359Z,44.68
2017-03-21T12:11:06.387Z,44.78
2017-03-21T12:12:06.100Z,44.59
2017-03-21T12:13:06.446Z,44.97
2017-03-21T12:14:06.474Z,44.87
2017-03-21T12:15:06.503Z,44.87
2017-03-21T12:16:06.216Z,44.78
2017-03-21T12:17:06.560Z,44.68
2017-03-21T12:18:06.585Z,44.1
2017-03-21T12:19:06.621Z,44.87
2017-03-21T12:20:06.330Z,44.78
2017-03-21T12:21:06.663Z,44.78
2017-03-21T12:22:06.696Z,44.78
2017-03-21T12:23:06.413Z,44.87
2017-03-21T12:24:06.755Z,44.97
2017-03-21T12:25:06.471Z,44.2
2017-03-21T12:26:06.806Z,44.68
2017-03-21T12:27:06.522Z,44.68
2017-03-21T12:28:06.545Z,44.59
2017-03-21T12:29:06.577Z,44.97
2017-03-21T12:30:06.917Z,44.29
2017-03-21T12:31:06.950Z,44.87
2017-03-21T12:32:06.979Z,44.87
2017-03-21T12:33:06.693Z,44.68
2017-03-21T12:34:07.036Z,44.78
2017-03-21T12:35:07.058Z,44.29
2017-03-21T12:36:07.087Z,44.2
2017-03-21T12:37:07.115Z,44.29
2017-03-21T12:38:07.140Z,44.29
2017-03-21T12:39:07.168Z,44.59
2017-03-21T12:40:07.196Z,44.39
2017-03-21T12:41:07.230Z,44.39
2017-03-21T12:42:06.939Z,44.2
2017-03-21T12:43:07.279Z,44.49
2017-03-21T12:44:07.311Z,44.01
2017-03-21T12:45:07.334Z,44.2
2017-03-21T12:46:07.366Z,44.39
2017-03-21T12:47:07.395Z,44.2
2017-03-21T12:48:07.436Z,44.01
2017-03-21T12:49:07.448Z,44.49
2017-03-21T12:50:07.477Z,44.87
2017-03-21T12:51:07.510Z,44.78
2017-03-21T12:52:07.218Z,44.78
2017-03-21T12:53:07.251Z,44.29
2017-03-21T12:54:07.592Z,44.2
2017-03-21T12:55:07.616Z,44.68
2017-03-21T12:56:07.641Z,44.29